sensor_id;sensor_type;location;lat;lon;timestamp;temperature;humidity
45066;DHT22;30830;53.704;10.004;2023-03-15T00:01:26;0.40;99.90
45066;DHT22;30830;53.704;10.004;2023-03-15T00:03:52;0.40;99.90
45066;DHT22;30830;53.704;10.004;2023-03-15T00:06:19;0.40;99.90
45066;DHT22;30830;53.704;10.004;2023-03-15T00:08:45;0.30;99.90
45066;DHT22;30830;53.704;10.004;2023-03-15T00:11:12;0.30;99.90
45066;DHT22;30830;53.704;10.004;2023-03-15T00:13:38;0.40;99.90
45066;DHT22;30830;53.704;10.004;2023-03-15T00:16:04;0.40;99.90
45066;DHT22;30830;53.704;10.004;2023-03-15T00:18:30;0.30;99.90
45066;DHT22;30830;53.704;10.004;2023-03-15T00:20:56;0.40;99.90
45066;DHT22;30830;53.704;10.004;2023-03-15T00:23:22;0.30;99.90
45066;DHT22;30830;53.704;10.004;2023-03-15T00:25:48;0.40;99.90
45066;DHT22;30830;53.704;10.004;2023-03-15T00:28:15;0.40;99.90
45066;DHT22;30830;53.704;10.004;2023-03-15T00:30:41;0.40;99.90
45066;DHT22;30830;53.704;10.004;2023-03-15T00:33:07;0.30;99.90
45066;DHT22;30830;53.704;10.004;2023-03-15T00:35:36;0.30;99.90
45066;DHT22;30830;53.704;10.004;2023-03-15T00:38:02;0.30;99.90
45066;DHT22;30830;53.704;10.004;2023-03-15T00:40:29;0.30;99.90
45066;DHT22;30830;53.704;10.004;2023-03-15T00:42:55;0.30;99.90
45066;DHT22;30830;53.704;10.004;2023-03-15T00:45:22;0.30;99.90
45066;DHT22;30830;53.704;10.004;2023-03-15T00:47:52;0.20;99.90
45066;DHT22;30830;53.704;10.004;2023-03-15T00:50:19;0.20;99.90
45066;DHT22;30830;53.704;10.004;2023-03-15T00:52:45;0.20;99.90
45066;DHT22;30830;53.704;10.004;2023-03-15T00:55:13;0.20;99.90
45066;DHT22;30830;53.704;10.004;2023-03-15T00:57:43;0.20;99.90
45066;DHT22;30830;53.704;10.004;2023-03-15T01:00:13;0.20;99.90
45066;DHT22;30830;53.704;10.004;2023-03-15T01:02:40;0.20;99.90
45066;DHT22;30830;53.704;10.004;2023-03-15T01:05:06;0.20;99.90
45066;DHT22;30830;53.704;10.004;2023-03-15T01:07:32;0.20;99.90
45066;DHT22;30830;53.704;10.004;2023-03-15T01:09:59;0.20;99.90
45066;DHT22;30830;53.704;10.004;2023-03-15T01:12:26;0.20;99.90
45066;DHT22;30830;53.704;10.004;2023-03-15T01:14:52;0.20;99.90
45066;DHT22;30830;53.704;10.004;2023-03-15T01:17:17;0.20;99.90
45066;DHT22;30830;53.704;10.004;2023-03-15T01:19:43;0.20;99.90
45066;DHT22;30830;53.704;10.004;2023-03-15T01:22:09;0.20;99.90
45066;DHT22;30830;53.704;10.004;2023-03-15T01:24:34;0.30;99.90
45066;DHT22;30830;53.704;10.004;2023-03-15T01:27:00;0.30;99.90
45066;DHT22;30830;53.704;10.004;2023-03-15T01:29:28;0.30;99.90
45066;DHT22;30830;53.704;10.004;2023-03-15T01:31:54;0.30;99.90
45066;DHT22;30830;53.704;10.004;2023-03-15T01:34:19;0.30;99.90
45066;DHT22;30830;53.704;10.004;2023-03-15T01:36:49;0.30;99.90
45066;DHT22;30830;53.704;10.004;2023-03-15T01:39:16;0.30;99.90
45066;DHT22;30830;53.704;10.004;2023-03-15T01:41:41;0.30;99.90
45066;DHT22;30830;53.704;10.004;2023-03-15T01:44:18;0.30;99.90
45066;DHT22;30830;53.704;10.004;2023-03-15T01:46:44;0.40;99.90
45066;DHT22;30830;53.704;10.004;2023-03-15T01:49:33;0.30;99.90
45066;DHT22;30830;53.704;10.004;2023-03-15T01:52:07;0.30;99.90
45066;DHT22;30830;53.704;10.004;2023-03-15T01:57:07;0.30;99.90
45066;DHT22;30830;53.704;10.004;2023-03-15T01:59:43;0.30;99.90
45066;DHT22;30830;53.704;10.004;2023-03-15T02:02:10;0.30;99.90
45066;DHT22;30830;53.704;10.004;2023-03-15T02:05:06;0.30;99.90
45066;DHT22;30830;53.704;10.004;2023-03-15T02:07:36;0.30;99.90
45066;DHT22;30830;53.704;10.004;2023-03-15T02:10:06;0.30;99.90
45066;DHT22;30830;53.704;10.004;2023-03-15T02:12:35;0.40;99.90
45066;DHT22;30830;53.704;10.004;2023-03-15T02:15:03;0.30;99.90
45066;DHT22;30830;53.704;10.004;2023-03-15T02:17:36;0.30;99.90
45066;DHT22;30830;53.704;10.004;2023-03-15T02:25:37;0.30;99.90
45066;DHT22;30830;53.704;10.004;2023-03-15T02:28:05;0.40;99.90
45066;DHT22;30830;53.704;10.004;2023-03-15T02:30:32;0.40;99.90
45066;DHT22;30830;53.704;10.004;2023-03-15T02:33:00;0.40;99.90
45066;DHT22;30830;53.704;10.004;2023-03-15T02:35:30;0.40;99.90
45066;DHT22;30830;53.704;10.004;2023-03-15T02:37:56;0.40;99.90
45066;DHT22;30830;53.704;10.004;2023-03-15T02:40:24;0.40;99.90
45066;DHT22;30830;53.704;10.004;2023-03-15T02:42:54;0.40;99.90
45066;DHT22;30830;53.704;10.004;2023-03-15T02:45:21;0.40;99.90
45066;DHT22;30830;53.704;10.004;2023-03-15T02:47:48;0.40;99.90
45066;DHT22;30830;53.704;10.004;2023-03-15T02:50:14;0.40;99.90
45066;DHT22;30830;53.704;10.004;2023-03-15T02:52:39;0.40;99.90
45066;DHT22;30830;53.704;10.004;2023-03-15T02:55:06;0.40;99.90
45066;DHT22;30830;53.704;10.004;2023-03-15T02:57:31;0.40;99.90
45066;DHT22;30830;53.704;10.004;2023-03-15T02:59:57;0.40;99.90
45066;DHT22;30830;53.704;10.004;2023-03-15T03:02:24;0.40;99.90
45066;DHT22;30830;53.704;10.004;2023-03-15T03:04:50;0.40;99.90
45066;DHT22;30830;53.704;10.004;2023-03-15T03:07:17;0.40;99.90
45066;DHT22;30830;53.704;10.004;2023-03-15T03:09:43;0.40;99.90
45066;DHT22;30830;53.704;10.004;2023-03-15T03:12:09;0.40;99.90
45066;DHT22;30830;53.704;10.004;2023-03-15T03:14:34;0.40;99.90
45066;DHT22;30830;53.704;10.004;2023-03-15T03:17:00;0.40;99.90
45066;DHT22;30830;53.704;10.004;2023-03-15T03:19:26;0.40;99.90
45066;DHT22;30830;53.704;10.004;2023-03-15T03:21:52;0.40;99.90
45066;DHT22;30830;53.704;10.004;2023-03-15T03:24:19;0.40;99.90
45066;DHT22;30830;53.704;10.004;2023-03-15T03:26:45;0.40;99.90
45066;DHT22;30830;53.704;10.004;2023-03-15T03:29:10;0.40;99.90
45066;DHT22;30830;53.704;10.004;2023-03-15T03:31:36;0.40;99.90
45066;DHT22;30830;53.704;10.004;2023-03-15T03:34:02;0.40;99.90
45066;DHT22;30830;53.704;10.004;2023-03-15T03:36:28;0.40;99.90
45066;DHT22;30830;53.704;10.004;2023-03-15T03:38:53;0.40;99.90
45066;DHT22;30830;53.704;10.004;2023-03-15T03:41:19;0.40;99.90
45066;DHT22;30830;53.704;10.004;2023-03-15T03:43:45;0.40;99.90
45066;DHT22;30830;53.704;10.004;2023-03-15T03:46:11;0.40;99.90
45066;DHT22;30830;53.704;10.004;2023-03-15T03:48:36;0.40;99.90
45066;DHT22;30830;53.704;10.004;2023-03-15T03:51:02;0.40;99.90
45066;DHT22;30830;53.704;10.004;2023-03-15T03:53:28;0.40;99.90
45066;DHT22;30830;53.704;10.004;2023-03-15T03:55:53;0.50;99.90
45066;DHT22;30830;53.704;10.004;2023-03-15T03:58:19;0.40;99.90
45066;DHT22;30830;53.704;10.004;2023-03-15T04:00:45;0.40;99.90
45066;DHT22;30830;53.704;10.004;2023-03-15T04:03:11;0.40;99.90
45066;DHT22;30830;53.704;10.004;2023-03-15T04:05:36;0.40;99.90
45066;DHT22;30830;53.704;10.004;2023-03-15T04:08:02;0.40;99.90
45066;DHT22;30830;53.704;10.004;2023-03-15T04:10:28;0.40;99.90
45066;DHT22;30830;53.704;10.004;2023-03-15T04:12:54;0.30;99.90
45066;DHT22;30830;53.704;10.004;2023-03-15T04:15:20;0.40;99.90
45066;DHT22;30830;53.704;10.004;2023-03-15T04:17:50;0.30;99.90
45066;DHT22;30830;53.704;10.004;2023-03-15T04:20:21;0.30;99.90
45066;DHT22;30830;53.704;10.004;2023-03-15T04:22:46;0.20;99.90
45066;DHT22;30830;53.704;10.004;2023-03-15T04:25:14;0.20;99.90
45066;DHT22;30830;53.704;10.004;2023-03-15T04:27:40;0.10;99.90
45066;DHT22;30830;53.704;10.004;2023-03-15T04:30:06;0.10;99.90
45066;DHT22;30830;53.704;10.004;2023-03-15T04:32:32;0.10;99.90
45066;DHT22;30830;53.704;10.004;2023-03-15T04:34:58;0.10;99.90
45066;DHT22;30830;53.704;10.004;2023-03-15T04:37:23;0.00;99.90
45066;DHT22;30830;53.704;10.004;2023-03-15T04:39:49;0.00;99.90
45066;DHT22;30830;53.704;10.004;2023-03-15T04:42:16;-0.10;99.90
45066;DHT22;30830;53.704;10.004;2023-03-15T04:44:42;-0.10;99.90
45066;DHT22;30830;53.704;10.004;2023-03-15T04:47:08;-0.10;99.90
45066;DHT22;30830;53.704;10.004;2023-03-15T04:49:33;-0.20;99.90
45066;DHT22;30830;53.704;10.004;2023-03-15T04:51:59;-0.20;99.90
45066;DHT22;30830;53.704;10.004;2023-03-15T04:54:25;-0.10;99.90
45066;DHT22;30830;53.704;10.004;2023-03-15T04:56:50;-0.20;99.90
45066;DHT22;30830;53.704;10.004;2023-03-15T04:59:16;-0.20;99.90
45066;DHT22;30830;53.704;10.004;2023-03-15T05:01:41;-0.20;99.90
45066;DHT22;30830;53.704;10.004;2023-03-15T05:04:07;-0.20;99.90
45066;DHT22;30830;53.704;10.004;2023-03-15T05:06:32;-0.20;99.90
45066;DHT22;30830;53.704;10.004;2023-03-15T05:08:58;-0.10;99.90
45066;DHT22;30830;53.704;10.004;2023-03-15T05:11:24;-0.10;99.90
45066;DHT22;30830;53.704;10.004;2023-03-15T05:13:49;0.00;99.90
45066;DHT22;30830;53.704;10.004;2023-03-15T05:16:15;0.00;99.90
45066;DHT22;30830;53.704;10.004;2023-03-15T05:18:40;0.00;99.90
45066;DHT22;30830;53.704;10.004;2023-03-15T05:21:06;0.00;99.90
45066;DHT22;30830;53.704;10.004;2023-03-15T05:23:32;0.00;99.90
45066;DHT22;30830;53.704;10.004;2023-03-15T05:26:00;0.10;99.90
45066;DHT22;30830;53.704;10.004;2023-03-15T05:28:26;0.00;99.90
45066;DHT22;30830;53.704;10.004;2023-03-15T05:30:52;0.00;99.90
45066;DHT22;30830;53.704;10.004;2023-03-15T05:33:19;0.00;99.90
45066;DHT22;30830;53.704;10.004;2023-03-15T05:35:45;0.00;99.90
45066;DHT22;30830;53.704;10.004;2023-03-15T05:38:11;0.10;99.90
45066;DHT22;30830;53.704;10.004;2023-03-15T05:40:42;0.10;99.90
45066;DHT22;30830;53.704;10.004;2023-03-15T05:43:07;0.00;99.90
45066;DHT22;30830;53.704;10.004;2023-03-15T05:45:33;0.00;99.90
45066;DHT22;30830;53.704;10.004;2023-03-15T05:47:58;0.00;99.90
45066;DHT22;30830;53.704;10.004;2023-03-15T05:50:24;0.00;99.90
45066;DHT22;30830;53.704;10.004;2023-03-15T05:52:50;0.00;99.90
45066;DHT22;30830;53.704;10.004;2023-03-15T05:55:16;-0.10;99.90
45066;DHT22;30830;53.704;10.004;2023-03-15T05:57:43;-0.10;99.90
45066;DHT22;30830;53.704;10.004;2023-03-15T06:00:09;-0.10;99.90
45066;DHT22;30830;53.704;10.004;2023-03-15T06:02:34;-0.10;99.90
45066;DHT22;30830;53.704;10.004;2023-03-15T06:05:00;-0.10;99.90
45066;DHT22;30830;53.704;10.004;2023-03-15T06:07:25;-0.10;99.90
45066;DHT22;30830;53.704;10.004;2023-03-15T06:09:51;-0.10;99.90
45066;DHT22;30830;53.704;10.004;2023-03-15T06:12:17;-0.10;99.90
45066;DHT22;30830;53.704;10.004;2023-03-15T06:14:44;-0.10;99.90
45066;DHT22;30830;53.704;10.004;2023-03-15T06:17:09;-0.10;99.90
45066;DHT22;30830;53.704;10.004;2023-03-15T06:19:35;0.00;99.90
45066;DHT22;30830;53.704;10.004;2023-03-15T06:22:01;0.00;99.90
45066;DHT22;30830;53.704;10.004;2023-03-15T06:24:26;0.00;99.90
45066;DHT22;30830;53.704;10.004;2023-03-15T06:26:52;0.00;99.90
45066;DHT22;30830;53.704;10.004;2023-03-15T06:29:19;0.10;99.90
45066;DHT22;30830;53.704;10.004;2023-03-15T06:31:46;0.20;99.90
45066;DHT22;30830;53.704;10.004;2023-03-15T06:34:14;0.20;99.90
45066;DHT22;30830;53.704;10.004;2023-03-15T06:36:39;0.20;99.90
45066;DHT22;30830;53.704;10.004;2023-03-15T06:39:07;0.30;99.90
45066;DHT22;30830;53.704;10.004;2023-03-15T06:41:33;0.30;99.90
45066;DHT22;30830;53.704;10.004;2023-03-15T06:43:58;0.40;99.90
45066;DHT22;30830;53.704;10.004;2023-03-15T06:46:24;0.50;99.90
45066;DHT22;30830;53.704;10.004;2023-03-15T06:48:50;0.50;99.90
45066;DHT22;30830;53.704;10.004;2023-03-15T06:51:15;0.60;99.90
45066;DHT22;30830;53.704;10.004;2023-03-15T06:53:41;0.70;99.90
45066;DHT22;30830;53.704;10.004;2023-03-15T06:56:07;0.70;99.90
45066;DHT22;30830;53.704;10.004;2023-03-15T06:58:32;0.80;99.90
45066;DHT22;30830;53.704;10.004;2023-03-15T07:00:58;0.80;99.90
45066;DHT22;30830;53.704;10.004;2023-03-15T07:03:23;0.90;99.90
45066;DHT22;30830;53.704;10.004;2023-03-15T07:05:49;1.00;99.90
45066;DHT22;30830;53.704;10.004;2023-03-15T07:08:18;1.00;99.90
45066;DHT22;30830;53.704;10.004;2023-03-15T07:10:44;1.00;99.90
45066;DHT22;30830;53.704;10.004;2023-03-15T07:13:11;0.90;99.90
45066;DHT22;30830;53.704;10.004;2023-03-15T07:15:36;0.80;99.90
45066;DHT22;30830;53.704;10.004;2023-03-15T07:18:02;0.70;99.90
45066;DHT22;30830;53.704;10.004;2023-03-15T07:20:27;0.70;99.90
45066;DHT22;30830;53.704;10.004;2023-03-15T07:22:53;0.60;99.90
45066;DHT22;30830;53.704;10.004;2023-03-15T07:25:18;0.60;99.90
45066;DHT22;30830;53.704;10.004;2023-03-15T07:27:48;0.50;99.90
45066;DHT22;30830;53.704;10.004;2023-03-15T07:30:15;0.50;99.90
45066;DHT22;30830;53.704;10.004;2023-03-15T07:32:41;0.50;99.90
45066;DHT22;30830;53.704;10.004;2023-03-15T07:35:07;0.50;99.90
45066;DHT22;30830;53.704;10.004;2023-03-15T07:37:33;0.50;99.90
45066;DHT22;30830;53.704;10.004;2023-03-15T07:39:59;0.50;99.90
45066;DHT22;30830;53.704;10.004;2023-03-15T07:42:34;0.60;99.90
45066;DHT22;30830;53.704;10.004;2023-03-15T07:45:00;0.70;99.90
45066;DHT22;30830;53.704;10.004;2023-03-15T07:47:25;0.70;99.90
45066;DHT22;30830;53.704;10.004;2023-03-15T07:49:51;0.70;99.90
45066;DHT22;30830;53.704;10.004;2023-03-15T07:52:16;0.80;99.90
45066;DHT22;30830;53.704;10.004;2023-03-15T07:54:42;0.80;99.90
45066;DHT22;30830;53.704;10.004;2023-03-15T07:57:08;0.80;99.90
45066;DHT22;30830;53.704;10.004;2023-03-15T07:59:33;0.90;99.90
45066;DHT22;30830;53.704;10.004;2023-03-15T08:01:59;0.90;99.90
45066;DHT22;30830;53.704;10.004;2023-03-15T08:04:24;0.90;99.90
45066;DHT22;30830;53.704;10.004;2023-03-15T08:06:50;1.00;99.90
45066;DHT22;30830;53.704;10.004;2023-03-15T08:09:15;1.10;99.90
45066;DHT22;30830;53.704;10.004;2023-03-15T08:11:41;1.20;99.90
45066;DHT22;30830;53.704;10.004;2023-03-15T08:14:07;1.30;99.90
45066;DHT22;30830;53.704;10.004;2023-03-15T08:16:32;1.50;99.90
45066;DHT22;30830;53.704;10.004;2023-03-15T08:18:58;1.70;99.90
45066;DHT22;30830;53.704;10.004;2023-03-15T08:21:23;1.80;99.90
45066;DHT22;30830;53.704;10.004;2023-03-15T08:23:49;2.00;99.90
45066;DHT22;30830;53.704;10.004;2023-03-15T08:26:14;2.10;99.90
45066;DHT22;30830;53.704;10.004;2023-03-15T08:28:40;2.30;99.90
45066;DHT22;30830;53.704;10.004;2023-03-15T08:31:09;2.40;99.90
45066;DHT22;30830;53.704;10.004;2023-03-15T08:33:38;2.60;99.90
45066;DHT22;30830;53.704;10.004;2023-03-15T08:36:04;2.80;99.90
45066;DHT22;30830;53.704;10.004;2023-03-15T08:38:30;2.90;99.90
45066;DHT22;30830;53.704;10.004;2023-03-15T08:40:56;3.00;99.90
45066;DHT22;30830;53.704;10.004;2023-03-15T08:43:22;3.10;99.90
45066;DHT22;30830;53.704;10.004;2023-03-15T08:45:49;3.30;99.90
45066;DHT22;30830;53.704;10.004;2023-03-15T08:48:14;3.40;99.90
45066;DHT22;30830;53.704;10.004;2023-03-15T08:50:40;3.60;99.90
45066;DHT22;30830;53.704;10.004;2023-03-15T08:53:06;3.80;99.90
45066;DHT22;30830;53.704;10.004;2023-03-15T08:55:32;3.90;99.90
45066;DHT22;30830;53.704;10.004;2023-03-15T08:57:58;4.00;99.90
45066;DHT22;30830;53.704;10.004;2023-03-15T09:00:26;3.90;99.90
45066;DHT22;30830;53.704;10.004;2023-03-15T09:02:52;3.60;99.90
45066;DHT22;30830;53.704;10.004;2023-03-15T09:05:18;3.20;99.90
45066;DHT22;30830;53.704;10.004;2023-03-15T09:07:44;2.80;99.90
45066;DHT22;30830;53.704;10.004;2023-03-15T09:10:12;2.60;99.90
45066;DHT22;30830;53.704;10.004;2023-03-15T09:12:43;2.40;99.90
45066;DHT22;30830;53.704;10.004;2023-03-15T09:15:09;2.40;99.90
45066;DHT22;30830;53.704;10.004;2023-03-15T09:17:36;2.30;99.90
45066;DHT22;30830;53.704;10.004;2023-03-15T09:20:03;2.20;99.90
45066;DHT22;30830;53.704;10.004;2023-03-15T09:22:32;2.20;99.90
45066;DHT22;30830;53.704;10.004;2023-03-15T09:24:57;2.20;99.90
45066;DHT22;30830;53.704;10.004;2023-03-15T09:27:23;2.30;99.90
45066;DHT22;30830;53.704;10.004;2023-03-15T09:29:48;2.40;99.90
45066;DHT22;30830;53.704;10.004;2023-03-15T09:32:14;2.50;99.90
45066;DHT22;30830;53.704;10.004;2023-03-15T09:34:40;2.60;99.90
45066;DHT22;30830;53.704;10.004;2023-03-15T09:37:05;2.60;99.90
45066;DHT22;30830;53.704;10.004;2023-03-15T09:39:31;2.60;99.90
45066;DHT22;30830;53.704;10.004;2023-03-15T09:41:58;2.80;99.90
45066;DHT22;30830;53.704;10.004;2023-03-15T09:44:34;2.90;99.90
45066;DHT22;30830;53.704;10.004;2023-03-15T09:49:56;3.30;99.90
45066;DHT22;30830;53.704;10.004;2023-03-15T09:52:31;3.50;99.90
45066;DHT22;30830;53.704;10.004;2023-03-15T09:55:02;3.60;99.90
45066;DHT22;30830;53.704;10.004;2023-03-15T10:00:31;3.90;99.90
45066;DHT22;30830;53.704;10.004;2023-03-15T10:02:59;4.00;99.90
45066;DHT22;30830;53.704;10.004;2023-03-15T10:06:11;3.90;99.90
45066;DHT22;30830;53.704;10.004;2023-03-15T10:08:26;3.90;99.90
45066;DHT22;30830;53.704;10.004;2023-03-15T10:11:26;3.90;99.90
45066;DHT22;30830;53.704;10.004;2023-03-15T10:16:47;3.40;99.90
45066;DHT22;30830;53.704;10.004;2023-03-15T10:19:52;3.30;99.90
45066;DHT22;30830;53.704;10.004;2023-03-15T10:25:28;3.70;99.90
45066;DHT22;30830;53.704;10.004;2023-03-15T10:30:38;4.00;99.90
45066;DHT22;30830;53.704;10.004;2023-03-15T10:33:08;3.90;99.90
45066;DHT22;30830;53.704;10.004;2023-03-15T10:35:37;3.80;99.90
45066;DHT22;30830;53.704;10.004;2023-03-15T10:38:15;3.70;99.90
45066;DHT22;30830;53.704;10.004;2023-03-15T10:40:42;3.70;99.90
45066;DHT22;30830;53.704;10.004;2023-03-15T10:45:38;3.90;99.90
45066;DHT22;30830;53.704;10.004;2023-03-15T10:48:04;3.90;99.90
45066;DHT22;30830;53.704;10.004;2023-03-15T10:50:31;3.90;99.90
45066;DHT22;30830;53.704;10.004;2023-03-15T10:52:58;3.80;99.90
45066;DHT22;30830;53.704;10.004;2023-03-15T10:55:34;3.70;99.90
45066;DHT22;30830;53.704;10.004;2023-03-15T11:00:49;3.70;99.90
45066;DHT22;30830;53.704;10.004;2023-03-15T11:03:19;3.80;99.90
45066;DHT22;30830;53.704;10.004;2023-03-15T11:05:51;3.90;99.90
45066;DHT22;30830;53.704;10.004;2023-03-15T11:08:40;4.00;99.90
45066;DHT22;30830;53.704;10.004;2023-03-15T11:11:07;4.10;99.90
45066;DHT22;30830;53.704;10.004;2023-03-15T11:13:37;4.20;99.90
45066;DHT22;30830;53.704;10.004;2023-03-15T11:16:05;4.30;99.90
45066;DHT22;30830;53.704;10.004;2023-03-15T11:18:40;4.50;99.90
45066;DHT22;30830;53.704;10.004;2023-03-15T11:21:07;4.50;99.90
45066;DHT22;30830;53.704;10.004;2023-03-15T11:23:37;4.60;99.90
45066;DHT22;30830;53.704;10.004;2023-03-15T11:26:05;4.60;99.90
45066;DHT22;30830;53.704;10.004;2023-03-15T11:28:34;4.50;99.90
45066;DHT22;30830;53.704;10.004;2023-03-15T11:31:00;4.50;99.90
45066;DHT22;30830;53.704;10.004;2023-03-15T11:36:04;4.40;99.90
45066;DHT22;30830;53.704;10.004;2023-03-15T11:38:40;4.30;99.90
45066;DHT22;30830;53.704;10.004;2023-03-15T11:41:26;4.30;99.90
45066;DHT22;30830;53.704;10.004;2023-03-15T11:44:00;3.90;99.90
45066;DHT22;30830;53.704;10.004;2023-03-15T11:49:00;3.00;99.90
45066;DHT22;30830;53.704;10.004;2023-03-15T11:51:31;2.90;99.90
45066;DHT22;30830;53.704;10.004;2023-03-15T11:54:08;2.90;99.90
45066;DHT22;30830;53.704;10.004;2023-03-15T11:56:49;2.90;99.90
45066;DHT22;30830;53.704;10.004;2023-03-15T11:59:18;2.90;99.90
45066;DHT22;30830;53.704;10.004;2023-03-15T12:01:47;3.00;99.90
45066;DHT22;30830;53.704;10.004;2023-03-15T12:07:07;3.40;99.90
45066;DHT22;30830;53.704;10.004;2023-03-15T12:22:51;4.10;99.90
45066;DHT22;30830;53.704;10.004;2023-03-15T12:25:42;4.20;99.90
45066;DHT22;30830;53.704;10.004;2023-03-15T12:28:21;4.30;99.90
45066;DHT22;30830;53.704;10.004;2023-03-15T12:30:59;4.30;99.90
45066;DHT22;30830;53.704;10.004;2023-03-15T12:33:26;4.50;99.90
45066;DHT22;30830;53.704;10.004;2023-03-15T12:36:31;4.60;99.90
45066;DHT22;30830;53.704;10.004;2023-03-15T12:39:03;4.70;99.90
45066;DHT22;30830;53.704;10.004;2023-03-15T12:41:47;4.70;99.90
45066;DHT22;30830;53.704;10.004;2023-03-15T12:46:58;4.60;99.90
45066;DHT22;30830;53.704;10.004;2023-03-15T12:55:00;4.50;99.90
45066;DHT22;30830;53.704;10.004;2023-03-15T12:57:35;4.50;99.90
45066;DHT22;30830;53.704;10.004;2023-03-15T13:00:06;4.70;99.90
45066;DHT22;30830;53.704;10.004;2023-03-15T13:02:43;4.80;99.90
45066;DHT22;30830;53.704;10.004;2023-03-15T13:08:07;4.90;99.90
45066;DHT22;30830;53.704;10.004;2023-03-15T13:10:39;5.00;99.90
45066;DHT22;30830;53.704;10.004;2023-03-15T13:16:06;5.10;99.90
45066;DHT22;30830;53.704;10.004;2023-03-15T13:18:42;5.10;99.90
45066;DHT22;30830;53.704;10.004;2023-03-15T13:23:39;5.30;99.90
45066;DHT22;30830;53.704;10.004;2023-03-15T13:28:48;5.40;99.90
45066;DHT22;30830;53.704;10.004;2023-03-15T13:31:19;5.50;99.90
45066;DHT22;30830;53.704;10.004;2023-03-15T13:33:50;5.50;99.90
45066;DHT22;30830;53.704;10.004;2023-03-15T13:36:26;5.60;99.90
45066;DHT22;30830;53.704;10.004;2023-03-15T13:38:53;5.60;99.90
45066;DHT22;30830;53.704;10.004;2023-03-15T13:41:28;5.60;99.90
45066;DHT22;30830;53.704;10.004;2023-03-15T13:43:57;5.60;99.90
45066;DHT22;30830;53.704;10.004;2023-03-15T13:46:25;5.70;99.90
45066;DHT22;30830;53.704;10.004;2023-03-15T13:48:53;5.60;99.90
45066;DHT22;30830;53.704;10.004;2023-03-15T13:51:27;5.60;99.90
45066;DHT22;30830;53.704;10.004;2023-03-15T13:54:23;5.60;99.90
45066;DHT22;30830;53.704;10.004;2023-03-15T13:57:17;5.50;99.90
45066;DHT22;30830;53.704;10.004;2023-03-15T13:59:50;5.50;99.90
45066;DHT22;30830;53.704;10.004;2023-03-15T14:05:10;5.60;99.90
45066;DHT22;30830;53.704;10.004;2023-03-15T14:07:37;5.70;99.90
45066;DHT22;30830;53.704;10.004;2023-03-15T14:10:24;5.80;99.90
45066;DHT22;30830;53.704;10.004;2023-03-15T14:12:51;5.90;99.90
45066;DHT22;30830;53.704;10.004;2023-03-15T14:15:45;6.10;99.90
45066;DHT22;30830;53.704;10.004;2023-03-15T14:20:42;6.40;99.90
45066;DHT22;30830;53.704;10.004;2023-03-15T14:23:12;6.50;99.90
45066;DHT22;30830;53.704;10.004;2023-03-15T14:25:38;6.50;99.90
45066;DHT22;30830;53.704;10.004;2023-03-15T14:28:04;6.50;99.90
45066;DHT22;30830;53.704;10.004;2023-03-15T14:30:34;6.40;99.90
45066;DHT22;30830;53.704;10.004;2023-03-15T14:33:02;6.20;99.90
45066;DHT22;30830;53.704;10.004;2023-03-15T14:35:31;6.20;99.90
45066;DHT22;30830;53.704;10.004;2023-03-15T14:40:42;6.40;99.90
45066;DHT22;30830;53.704;10.004;2023-03-15T14:43:08;6.40;99.90
45066;DHT22;30830;53.704;10.004;2023-03-15T14:45:36;6.30;99.90
45066;DHT22;30830;53.704;10.004;2023-03-15T14:48:17;6.40;99.90
45066;DHT22;30830;53.704;10.004;2023-03-15T14:50:44;6.40;99.90
45066;DHT22;30830;53.704;10.004;2023-03-15T14:53:15;6.50;99.90
45066;DHT22;30830;53.704;10.004;2023-03-15T14:55:41;6.50;99.90
45066;DHT22;30830;53.704;10.004;2023-03-15T14:58:17;6.50;99.90
45066;DHT22;30830;53.704;10.004;2023-03-15T15:00:44;6.50;99.90
45066;DHT22;30830;53.704;10.004;2023-03-15T15:05:49;6.30;99.90
45066;DHT22;30830;53.704;10.004;2023-03-15T15:08:17;6.20;99.90
45066;DHT22;30830;53.704;10.004;2023-03-15T15:10:47;6.20;99.90
45066;DHT22;30830;53.704;10.004;2023-03-15T15:13:19;6.10;99.90
45066;DHT22;30830;53.704;10.004;2023-03-15T15:15:45;6.10;99.90
45066;DHT22;30830;53.704;10.004;2023-03-15T15:18:11;6.20;99.90
45066;DHT22;30830;53.704;10.004;2023-03-15T15:20:36;6.20;99.90
45066;DHT22;30830;53.704;10.004;2023-03-15T15:23:02;6.20;99.90
45066;DHT22;30830;53.704;10.004;2023-03-15T15:25:28;6.20;99.90
45066;DHT22;30830;53.704;10.004;2023-03-15T15:27:55;6.30;99.90
45066;DHT22;30830;53.704;10.004;2023-03-15T15:30:23;6.30;99.90
45066;DHT22;30830;53.704;10.004;2023-03-15T15:32:50;6.20;99.90
45066;DHT22;30830;53.704;10.004;2023-03-15T15:35:18;6.20;99.90
45066;DHT22;30830;53.704;10.004;2023-03-15T15:37:46;6.20;99.90
45066;DHT22;30830;53.704;10.004;2023-03-15T15:42:42;6.00;99.90
45066;DHT22;30830;53.704;10.004;2023-03-15T15:45:11;5.90;99.90
45066;DHT22;30830;53.704;10.004;2023-03-15T15:47:37;5.80;99.90
45066;DHT22;30830;53.704;10.004;2023-03-15T15:50:03;5.70;99.90
45066;DHT22;30830;53.704;10.004;2023-03-15T15:52:29;5.60;99.90
45066;DHT22;30830;53.704;10.004;2023-03-15T15:54:55;5.60;99.90
45066;DHT22;30830;53.704;10.004;2023-03-15T15:57:21;5.60;99.90
45066;DHT22;30830;53.704;10.004;2023-03-15T15:59:51;5.50;99.90
45066;DHT22;30830;53.704;10.004;2023-03-15T16:02:17;5.50;99.90
45066;DHT22;30830;53.704;10.004;2023-03-15T16:04:47;5.40;99.90
45066;DHT22;30830;53.704;10.004;2023-03-15T16:07:13;5.40;99.90
45066;DHT22;30830;53.704;10.004;2023-03-15T16:09:41;5.30;99.90
45066;DHT22;30830;53.704;10.004;2023-03-15T16:12:15;5.20;99.90
45066;DHT22;30830;53.704;10.004;2023-03-15T16:14:41;5.20;99.90
45066;DHT22;30830;53.704;10.004;2023-03-15T16:17:15;5.10;99.90
45066;DHT22;30830;53.704;10.004;2023-03-15T16:19:41;5.10;99.90
45066;DHT22;30830;53.704;10.004;2023-03-15T16:22:07;5.10;99.90
45066;DHT22;30830;53.704;10.004;2023-03-15T16:24:33;5.00;99.90
45066;DHT22;30830;53.704;10.004;2023-03-15T16:27:04;4.90;99.90
45066;DHT22;30830;53.704;10.004;2023-03-15T16:29:41;4.90;99.90
45066;DHT22;30830;53.704;10.004;2023-03-15T16:32:16;4.80;99.90
45066;DHT22;30830;53.704;10.004;2023-03-15T16:34:42;4.80;99.90
45066;DHT22;30830;53.704;10.004;2023-03-15T16:37:18;4.70;99.90
45066;DHT22;30830;53.704;10.004;2023-03-15T16:39:47;4.70;99.90
45066;DHT22;30830;53.704;10.004;2023-03-15T16:42:14;4.70;99.90
45066;DHT22;30830;53.704;10.004;2023-03-15T16:44:40;4.60;99.90
45066;DHT22;30830;53.704;10.004;2023-03-15T16:47:07;4.50;99.90
45066;DHT22;30830;53.704;10.004;2023-03-15T16:49:33;4.60;99.90
45066;DHT22;30830;53.704;10.004;2023-03-15T16:51:59;4.60;99.90
45066;DHT22;30830;53.704;10.004;2023-03-15T16:54:27;4.60;99.90
45066;DHT22;30830;53.704;10.004;2023-03-15T16:56:53;4.60;99.90
45066;DHT22;30830;53.704;10.004;2023-03-15T16:59:19;4.50;99.90